Time;durP1;ratioP1;P1;durP2;ratioP2;P2;SDS_P1;SDS_P2;PMS_P1;PMS_P2;Temp;Humidity;BMP_temperature;BMP_pressure;BME280_temperature;BME280_humidity;BME280_pressure;Samples;Min_cycle;Max_cycle;Signal;HPM_P1;HPM_P2
2023/06/13 00:00:12;;;;;;;7.38;4.82;;;18.10;54.00;;;;;;7377523;19;20662;-87
2023/06/13 00:03:02;;;;;;;8.65;4.60;;;18.10;54.20;;;;;;7375758;19;20007;-88
2023/06/13 00:05:46;;;;;;;6.22;5.00;;;18.00;55.00;;;;;;7371818;19;20021;-87
2023/06/13 00:08:21;;;;;;;6.10;4.65;;;18.00;54.50;;;;;;7373325;19;20021;-87
2023/06/13 00:10:48;;;;;;;8.40;5.55;;;18.00;54.50;;;;;;7375127;19;20046;-89
2023/06/13 00:13:18;;;;;;;9.35;5.30;;;17.90;54.80;;;;;;7376071;19;20593;-89
2023/06/13 00:16:01;;;;;;;10.13;5.63;;;17.90;54.70;;;;;;7373449;19;20014;-88
2023/06/13 00:18:29;;;;;;;7.78;5.32;;;17.90;55.10;;;;;;7373769;19;20011;-87
2023/06/13 00:20:58;;;;;;;8.38;5.95;;;17.80;55.00;;;;;;7369784;19;20021;-88
2023/06/13 00:23:28;;;;;;;9.35;5.90;;;17.90;55.00;;;;;;7373498;19;20082;-89
2023/06/13 00:25:54;;;;;;;7.55;6.18;;;17.80;55.10;;;;;;7373429;19;20359;-88
2023/06/13 00:28:21;;;;;;;8.20;6.95;;;17.80;55.30;;;;;;7372693;19;20019;-88
2023/06/13 00:30:51;;;;;;;10.63;5.93;;;17.80;55.30;;;;;;7365896;19;20022;-89
2023/06/13 00:33:18;;;;;;;7.78;5.95;;;17.80;55.30;;;;;;7371918;19;20125;-88
2023/06/13 00:35:51;;;;;;;;;;;17.80;55.20;;;;;;7373055;19;20022;-88
2023/06/13 00:38:21;;;;;;;8.93;6.32;;;17.70;56.20;;;;;;7370965;19;19923;-88
2023/06/13 00:40:48;;;;;;;11.27;6.38;;;17.60;55.70;;;;;;7371835;19;20018;-87
2023/06/13 00:43:14;;;;;;;10.05;6.40;;;17.60;55.90;;;;;;7372568;19;20474;-89
2023/06/13 00:45:44;;;;;;;10.07;6.57;;;17.50;56.00;;;;;;7370326;19;20461;-90
2023/06/13 00:48:12;;;;;;;9.55;6.53;;;17.50;56.10;;;;;;7367047;19;20014;-88
2023/06/13 00:50:45;;;;;;;11.40;6.88;;;17.50;56.40;;;;;;7369725;19;20022;-89
2023/06/13 00:53:17;;;;;;;8.45;6.07;;;17.40;56.60;;;;;;7373932;19;20022;-88
2023/06/13 00:55:47;;;;;;;13.32;6.53;;;17.40;56.80;;;;;;7374671;19;20022;-88
2023/06/13 00:58:15;;;;;;;7.95;6.20;;;17.30;57.10;;;;;;7372301;19;20391;-87
2023/06/13 01:00:45;;;;;;;8.70;6.45;;;17.20;57.10;;;;;;7373739;19;20515;-87
2023/06/13 01:03:15;;;;;;;12.02;5.88;;;17.20;57.30;;;;;;7371125;19;20030;-86
2023/06/13 01:05:44;;;;;;;9.85;6.30;;;17.10;57.50;;;;;;7376014;19;20011;-87
2023/06/13 01:08:21;;;;;;;8.95;6.50;;;17.20;57.60;;;;;;7374436;19;20014;-88
2023/06/13 01:11:03;;;;;;;10.77;7.18;;;17.10;57.90;;;;;;7377645;19;20090;-89
2023/06/13 01:13:38;;;;;;;11.45;5.90;;;17.00;58.60;;;;;;7376586;19;20011;-89
2023/06/13 01:16:23;;;;;;;9.07;6.28;;;16.90;58.80;;;;;;7381981;19;20018;-90
2023/06/13 01:18:52;;;;;;;9.65;6.28;;;16.90;59.10;;;;;;7383866;19;20021;-89
2023/06/13 01:21:35;;;;;;;8.57;6.25;;;16.80;59.10;;;;;;7384852;19;20652;-89
2023/06/13 01:24:57;;;;;;;11.05;6.85;;;16.80;59.40;;;;;;7389679;19;20063;-88
2023/06/13 01:27:26;;;;;;;10.52;6.38;;;16.70;60.00;;;;;;7386050;19;20022;-90
2023/06/13 01:30:03;;;;;;;8.90;6.40;;;16.70;59.90;;;;;;7383839;19;20019;-89
2023/06/13 01:32:38;;;;;;;9.20;5.97;;;16.60;60.00;;;;;;7382476;19;20033;-88
2023/06/13 01:35:08;;;;;;;11.05;7.00;;;16.60;60.30;;;;;;7379528;19;20019;-87
2023/06/13 01:37:37;;;;;;;8.98;6.32;;;16.60;60.40;;;;;;7382260;19;20020;-89
2023/06/13 01:40:21;;;;;;;;;;;16.50;60.60;;;;;;7381787;19;20014;-90
2023/06/13 01:42:47;;;;;;;9.63;6.45;;;16.50;61.80;;;;;;7382333;19;19918;-88
2023/06/13 01:45:15;;;;;;;10.75;6.57;;;16.40;61.20;;;;;;7378944;19;20015;-88
2023/06/13 01:47:54;;;;;;;10.88;7.00;;;16.40;61.50;;;;;;7381938;19;20022;-87
2023/06/13 01:50:30;;;;;;;8.57;6.18;;;16.30;61.80;;;;;;7380058;19;20025;-88
2023/06/13 01:53:16;;;;;;;8.43;6.78;;;16.30;62.30;;;;;;7378720;19;20029;-88
2023/06/13 01:55:57;;;;;;;11.38;6.85;;;16.30;62.30;;;;;;7382573;19;20038;-87
2023/06/13 01:58:40;;;;;;;9.02;7.18;;;16.30;62.30;;;;;;7376753;19;20377;-89
2023/06/13 02:01:13;;;;;;;12.40;6.55;;;16.30;62.70;;;;;;7377513;19;20010;-89
2023/06/13 02:03:43;;;;;;;10.57;6.65;;;16.30;62.90;;;;;;7373618;19;20021;-86
2023/06/13 02:06:26;;;;;;;11.18;6.20;;;16.20;63.10;;;;;;7380744;19;20018;-88
2023/06/13 02:08:57;;;;;;;;;;;16.20;63.40;;;;;;7370691;19;20021;-89
2023/06/13 02:11:23;;;;;;;11.30;6.70;;;16.10;64.70;;;;;;7370720;19;19921;-89
2023/06/13 02:13:58;;;;;;;9.52;6.80;;;16.10;64.10;;;;;;7374167;19;20022;-88
2023/06/13 02:16:30;;;;;;;10.18;6.70;;;16.00;64.30;;;;;;7379826;19;20015;-89
2023/06/13 02:19:03;;;;;;;7.95;6.05;;;16.00;64.50;;;;;;7377588;19;20024;-88
2023/06/13 02:21:46;;;;;;;10.25;7.00;;;16.00;64.70;;;;;;7379260;19;20093;-88
2023/06/13 02:24:14;;;;;;;9.45;6.43;;;16.00;65.00;;;;;;7378696;19;20018;-89
2023/06/13 02:26:42;;;;;;;9.40;6.57;;;16.00;65.50;;;;;;7377626;19;20110;-88
2023/06/13 02:29:09;;;;;;;8.65;6.18;;;16.00;65.80;;;;;;7373625;19;20018;-88
2023/06/13 02:31:38;;;;;;;10.43;6.70;;;16.00;66.20;;;;;;7379663;19;20019;-88
2023/06/13 02:34:05;;;;;;;10.00;6.57;;;15.90;66.10;;;;;;7374333;19;20010;-89
2023/06/13 02:36:32;;;;;;;11.25;6.82;;;15.90;66.70;;;;;;7377681;19;20014;-88
2023/06/13 02:39:02;;;;;;;10.07;6.63;;;15.80;67.10;;;;;;7374341;19;20616;-87
2023/06/13 02:41:42;;;;;;;11.32;7.22;;;15.80;67.50;;;;;;7376444;19;20021;-88
2023/06/13 02:44:18;;;;;;;8.40;6.93;;;15.80;68.60;;;;;;7374165;19;20493;-87
2023/06/13 02:46:47;;;;;;;10.68;6.30;;;15.70;67.80;;;;;;7373447;19;20014;-88
2023/06/13 02:49:14;;;;;;;10.82;6.78;;;15.70;68.10;;;;;;7369054;19;20597;-88
2023/06/13 02:51:40;;;;;;;9.18;6.00;;;15.70;68.50;;;;;;7368911;19;20443;-87
2023/06/13 02:54:11;;;;;;;8.45;6.82;;;15.70;69.30;;;;;;7366241;19;20484;-88
2023/06/13 02:56:42;;;;;;;11.73;6.38;;;15.60;69.30;;;;;;7365679;19;20431;-88
2023/06/13 02:59:10;;;;;;;11.00;6.65;;;15.60;69.30;;;;;;7368813;19;20086;-88
2023/06/13 03:01:51;;;;;;;10.05;6.82;;;15.60;69.70;;;;;;7367280;19;20029;-87
2023/06/13 03:04:18;;;;;;;8.25;6.60;;;15.60;70.70;;;;;;7365310;19;20029;-87
2023/06/13 03:06:49;;;;;;;11.27;6.63;;;15.60;71.50;;;;;;7365464;19;20694;-88
2023/06/13 03:09:21;;;;;;;10.38;6.55;;;15.60;71.10;;;;;;7366147;19;21337;-87
2023/06/13 03:11:48;;;;;;;8.10;6.50;;;15.50;71.60;;;;;;7364017;19;20577;-89
2023/06/13 03:14:18;;;;;;;7.65;6.63;;;15.40;71.80;;;;;;7370649;19;20026;-88
2023/06/13 03:16:48;;;;;;;8.77;6.63;;;15.50;72.50;;;;;;7367035;19;20398;-88
2023/06/13 03:19:15;;;;;;;9.77;6.90;;;15.50;73.10;;;;;;7363764;19;20026;-87
2023/06/13 03:21:49;;;;;;;7.63;6.30;;;15.40;73.50;;;;;;7367302;19;20018;-89
2023/06/13 03:24:26;;;;;;;12.45;6.50;;;15.40;74.20;;;;;;7364325;19;20145;-89
2023/06/13 03:26:59;;;;;;;9.73;5.90;;;15.30;74.60;;;;;;7363423;19;20014;-89
2023/06/13 03:29:27;;;;;;;11.13;6.97;;;15.30;75.30;;;;;;7365766;19;20050;-89
2023/06/13 03:31:54;;;;;;;10.63;7.03;;;15.30;76.50;;;;;;7363415;19;20021;-89
2023/06/13 03:34:24;;;;;;;9.45;6.10;;;15.30;76.10;;;;;;7365717;19;20014;-88
2023/06/13 03:36:56;;;;;;;9.35;6.03;;;15.30;76.80;;;;;;7367953;19;20015;-87
2023/06/13 03:39:39;;;;;;;8.65;7.05;;;15.30;77.20;;;;;;7366896;19;20018;-87
2023/06/13 03:42:08;;;;;;;8.07;6.75;;;15.30;77.60;;;;;;7367375;19;20022;-87
2023/06/13 03:44:37;;;;;;;9.30;6.30;;;15.30;77.90;;;;;;7365265;19;20033;-88
2023/06/13 03:47:05;;;;;;;7.25;6.00;;;15.30;78.90;;;;;;7363273;19;20039;-88
2023/06/13 03:49:34;;;;;;;8.48;6.07;;;15.30;79.40;;;;;;7365923;19;20026;-86
2023/06/13 03:52:17;;;;;;;9.35;5.97;;;15.30;79.80;;;;;;7369539;19;20029;-87
2023/06/13 03:54:44;;;;;;;9.80;6.30;;;15.30;80.70;;;;;;7372290;19;20521;-88
2023/06/13 03:57:12;;;;;;;9.20;5.57;;;15.30;81.20;;;;;;7377220;19;20029;-86
2023/06/13 03:59:40;;;;;;;9.95;5.65;;;15.30;81.60;;;;;;7375484;19;20495;-88
2023/06/13 04:02:13;;;;;;;8.98;6.15;;;15.30;82.30;;;;;;7378319;19;20078;-88
2023/06/13 04:04:46;;;;;;;10.88;6.15;;;15.30;83.10;;;;;;7373536;19;20019;-90
2023/06/13 04:07:13;;;;;;;9.80;6.43;;;15.30;83.20;;;;;;7375553;19;20415;-89
2023/06/13 04:09:42;;;;;;;12.05;6.00;;;15.40;84.20;;;;;;7370296;19;20014;-89
2023/06/13 04:12:26;;;;;;;7.05;5.75;;;15.40;84.70;;;;;;7375150;19;20015;-88
2023/06/13 04:14:55;;;;;;;10.27;5.85;;;15.40;84.80;;;;;;7373319;19;20023;-88
2023/06/13 04:17:22;;;;;;;8.10;5.85;;;15.50;85.90;;;;;;7370180;19;20701;-89
2023/06/13 04:19:52;;;;;;;9.88;6.07;;;15.50;86.30;;;;;;7374132;19;20509;-88
2023/06/13 04:22:19;;;;;;;9.52;5.80;;;15.50;86.60;;;;;;7373779;19;20025;-88
2023/06/13 04:25:10;;;;;;;9.90;6.10;;;15.60;87.20;;;;;;7374354;19;20111;-89
2023/06/13 04:27:38;;;;;;;10.75;5.97;;;15.60;87.70;;;;;;7372159;19;20010;-89
2023/06/13 04:30:07;;;;;;;8.27;5.28;;;15.70;88.30;;;;;;7373639;19;20014;-87
2023/06/13 04:32:34;;;;;;;8.80;5.93;;;15.70;88.10;;;;;;7364164;19;20022;-89
2023/06/13 04:35:01;;;;;;;11.65;5.90;;;15.80;88.40;;;;;;7364221;19;20074;-90
2023/06/13 04:37:34;;;;;;;12.40;6.57;;;15.80;88.30;;;;;;7365636;19;20021;-88
2023/06/13 04:40:06;;;;;;;9.70;6.57;;;15.80;88.10;;;;;;7371515;19;20509;-89
2023/06/13 04:42:32;;;;;;;10.60;6.13;;;15.90;88.20;;;;;;7369673;19;20101;-89
2023/06/13 04:44:59;;;;;;;7.72;5.60;;;16.30;88.30;;;;;;7371681;19;20025;-88
2023/06/13 04:47:33;;;;;;;10.45;6.10;;;16.50;87.80;;;;;;7375015;19;20022;-88
2023/06/13 04:50:03;;;;;;;9.23;5.80;;;16.60;86.40;;;;;;7372926;19;20452;-89
2023/06/13 04:52:33;;;;;;;7.03;5.15;;;16.80;85.60;;;;;;7372889;19;20712;-91
2023/06/13 04:55:03;;;;;;;8.77;5.63;;;16.90;85.10;;;;;;7378031;19;20018;-92
2023/06/13 04:57:31;;;;;;;7.95;5.13;;;17.00;84.40;;;;;;7379764;19;20018;-91
2023/06/13 04:59:59;;;;;;;13.20;5.38;;;17.00;84.10;;;;;;7377890;19;20059;-88
2023/06/13 05:02:27;;;;;;;10.13;6.57;;;17.10;83.50;;;;;;7378457;19;20027;-90
2023/06/13 05:05:04;;;;;;;7.32;5.03;;;17.20;83.20;;;;;;7367663;19;20532;-91
2023/06/13 05:07:32;;;;;;;9.07;5.28;;;17.30;83.00;;;;;;7374361;19;20011;-91
2023/06/13 05:09:59;;;;;;;6.63;5.15;;;17.40;82.90;;;;;;7376923;19;20026;-87
2023/06/13 05:12:25;;;;;;;7.32;5.50;;;17.70;81.80;;;;;;7369322;19;20135;-90
2023/06/13 05:14:52;;;;;;;7.25;4.47;;;17.90;80.60;;;;;;7366108;19;20029;-85
2023/06/13 05:17:18;;;;;;;8.93;5.93;;;18.20;78.70;;;;;;7372257;19;20035;-90
2023/06/13 05:19:45;;;;;;;8.70;4.75;;;18.40;78.90;;;;;;7372668;19;20006;-89
2023/06/13 05:22:11;;;;;;;7.18;5.40;;;18.50;76.50;;;;;;7368882;19;20038;-87
2023/06/13 05:24:38;;;;;;;9.70;6.55;;;18.80;76.40;;;;;;7367665;19;20044;-87
2023/06/13 05:27:05;;;;;;;12.65;8.75;;;18.90;75.90;;;;;;7363316;19;20022;-88
2023/06/13 05:29:31;;;;;;;14.50;11.45;;;19.00;75.20;;;;;;7370417;19;20018;-91
2023/06/13 05:31:59;;;;;;;7.47;5.53;;;19.20;74.80;;;;;;7376580;19;20019;-91
2023/06/13 05:34:26;;;;;;;14.63;9.48;;;19.30;73.00;;;;;;7380633;19;20087;-92
2023/06/13 05:36:53;;;;;;;10.80;5.45;;;19.40;72.30;;;;;;7367260;19;20029;-88
2023/06/13 05:39:20;;;;;;;9.25;5.93;;;19.60;71.40;;;;;;7367801;19;20022;-88
2023/06/13 05:41:47;;;;;;;8.98;6.35;;;19.70;70.40;;;;;;7371515;19;20010;-94
2023/06/13 05:44:14;;;;;;;13.90;9.32;;;20.00;69.70;;;;;;7381859;19;20003;-90
2023/06/13 05:46:41;;;;;;;9.15;5.03;;;20.20;68.50;;;;;;7364738;19;20477;-85
2023/06/13 05:49:08;;;;;;;5.57;4.18;;;20.30;67.20;;;;;;7376205;19;20033;-88
2023/06/13 05:51:36;;;;;;;6.80;4.22;;;20.40;64.50;;;;;;7376042;19;20043;-88
2023/06/13 05:54:03;;;;;;;10.27;7.10;;;20.50;65.10;;;;;;7376247;19;20014;-87
2023/06/13 05:56:31;;;;;;;6.88;4.40;;;20.40;63.70;;;;;;7372317;19;20011;-87
2023/06/13 05:58:58;;;;;;;9.98;4.60;;;20.60;63.60;;;;;;7367471;19;20633;-89
2023/06/13 06:01:25;;;;;;;8.05;4.30;;;20.60;63.10;;;;;;7365150;19;20551;-85
2023/06/13 06:03:51;;;;;;;9.27;4.60;;;20.60;61.40;;;;;;7371212;19;20026;-85
2023/06/13 06:06:18;;;;;;;8.93;4.53;;;20.80;61.60;;;;;;7374657;19;20025;-86
2023/06/13 06:08:45;;;;;;;7.75;4.35;;;21.00;61.60;;;;;;7373032;19;20025;-85
2023/06/13 06:11:12;;;;;;;9.80;8.30;;;20.90;60.40;;;;;;7375781;19;20019;-84
2023/06/13 06:13:38;;;;;;;8.95;5.72;;;21.00;60.00;;;;;;7372550;19;20063;-84
2023/06/13 06:16:05;;;;;;;7.32;5.78;;;21.00;60.70;;;;;;7373808;19;20021;-83
2023/06/13 06:18:31;;;;;;;9.63;6.20;;;21.00;59.60;;;;;;7374732;19;20477;-84
2023/06/13 06:20:58;;;;;;;9.05;4.45;;;21.20;59.70;;;;;;7375765;19;20023;-82
2023/06/13 06:23:24;;;;;;;7.88;5.57;;;21.20;58.70;;;;;;7377175;19;20026;-83
2023/06/13 06:25:51;;;;;;;16.77;12.23;;;21.20;57.90;;;;;;7373166;19;20043;-81
2023/06/13 06:28:18;;;;;;;10.00;5.25;;;21.30;58.00;;;;;;7372418;19;20063;-83
2023/06/13 06:30:47;;;;;;;11.10;6.50;;;21.10;58.50;;;;;;7374066;19;20015;-82
2023/06/13 06:33:14;;;;;;;18.55;16.52;;;21.40;59.40;;;;;;7374220;19;20014;-83
2023/06/13 06:35:40;;;;;;;14.98;12.52;;;21.50;58.70;;;;;;7375446;19;20483;-83
2023/06/13 06:38:06;;;;;;;25.67;22.55;;;21.80;59.20;;;;;;7371171;19;20481;-84
2023/06/13 06:40:33;;;;;;;11.23;5.63;;;22.10;59.70;;;;;;7375046;19;20024;-83
2023/06/13 06:42:59;;;;;;;15.00;11.10;;;22.30;58.50;;;;;;7371640;19;20014;-84
2023/06/13 06:45:28;;;;;;;13.30;7.93;;;22.40;58.30;;;;;;7371760;19;20078;-80
2023/06/13 06:47:56;;;;;;;9.98;5.15;;;22.50;57.40;;;;;;7370098;19;20111;-84
2023/06/13 06:50:27;;;;;;;9.98;8.10;;;22.50;55.80;;;;;;7370751;19;20033;-83
2023/06/13 06:53:13;;;;;;;19.05;15.55;;;22.50;56.60;;;;;;7370875;19;20102;-83
2023/06/13 06:55:59;;;;;;;16.75;12.20;;;22.60;56.10;;;;;;7369983;19;20377;-82
2023/06/13 06:58:31;;;;;;;8.35;5.05;;;22.80;55.90;;;;;;7368830;19;20018;-82
2023/06/13 07:01:14;;;;;;;12.43;9.02;;;22.70;55.00;;;;;;7374038;19;20017;-82
2023/06/13 07:03:58;;;;;;;7.18;4.75;;;22.90;54.70;;;;;;7369206;19;20022;-82
2023/06/13 07:06:30;;;;;;;16.90;14.07;;;22.90;54.10;;;;;;7371536;19;20055;-83
2023/06/13 07:08:57;;;;;;;11.57;10.02;;;23.00;54.00;;;;;;7370049;19;20022;-84
2023/06/13 07:11:43;;;;;;;13.88;9.77;;;23.00;53.40;;;;;;7370332;19;20015;-84
2023/06/13 07:14:10;;;;;;;15.63;14.10;;;23.10;53.40;;;;;;7371159;19;20018;-86
2023/06/13 07:16:38;;;;;;;14.10;9.70;;;23.20;52.90;;;;;;7371993;19;20022;-84
2023/06/13 07:19:25;;;;;;;21.83;19.67;;;23.30;51.90;;;;;;7373841;19;20014;-85
2023/06/13 07:21:51;;;;;;;7.45;5.55;;;23.50;51.90;;;;;;7369690;19;20047;-80
2023/06/13 07:24:18;;;;;;;17.63;12.23;;;23.80;51.30;;;;;;7372264;19;20041;-81
2023/06/13 07:26:44;;;;;;;9.80;7.53;;;23.90;50.60;;;;;;7364724;19;20341;-83
2023/06/13 07:29:11;;;;;;;8.52;6.20;;;24.10;49.70;;;;;;7367783;19;20101;-86
2023/06/13 07:31:52;;;;;;;6.10;3.65;;;24.40;49.50;;;;;;7372071;19;20022;-84
2023/06/13 07:34:19;;;;;;;8.30;6.60;;;24.20;47.90;;;;;;7371539;19;20026;-85
2023/06/13 07:36:45;;;;;;;18.80;16.80;;;24.50;48.10;;;;;;7372342;19;20014;-85
2023/06/13 07:39:12;;;;;;;6.30;3.63;;;24.50;48.70;;;;;;7372287;19;20018;-84
2023/06/13 07:41:56;;;;;;;9.15;4.28;;;24.50;47.80;;;;;;7369339;19;20022;-83
2023/06/13 07:44:23;;;;;;;7.47;3.50;;;25.00;47.30;;;;;;7369533;19;20030;-83
2023/06/13 07:47:07;;;;;;;6.90;4.18;;;25.00;46.20;;;;;;7367590;19;20058;-83
2023/06/13 07:49:34;;;;;;;8.63;3.83;;;25.30;46.50;;;;;;7369203;19;20482;-83
2023/06/13 07:52:00;;;;;;;9.80;6.38;;;25.40;46.30;;;;;;7370796;19;20014;-83
2023/06/13 07:54:27;;;;;;;5.32;3.50;;;25.60;46.60;;;;;;7371116;19;20072;-83
2023/06/13 07:56:54;;;;;;;8.43;6.05;;;25.40;45.40;;;;;;7367934;19;20045;-84
2023/06/13 07:59:21;;;;;;;13.30;10.88;;;25.80;45.70;;;;;;7369503;19;20025;-85
2023/06/13 08:01:48;;;;;;;8.90;5.00;;;26.10;47.30;;;;;;7370255;19;20101;-84
2023/06/13 08:04:15;;;;;;;7.18;3.50;;;26.30;46.00;;;;;;7369409;19;20022;-82
2023/06/13 08:06:42;;;;;;;18.80;16.83;;;26.60;45.30;;;;;;7370296;19;20027;-83
2023/06/13 08:09:11;;;;;;;10.07;8.70;;;26.80;45.70;;;;;;7366185;19;20014;-84
2023/06/13 08:11:38;;;;;;;7.95;3.38;;;27.00;45.30;;;;;;7370317;19;20022;-82
2023/06/13 08:14:07;;;;;;;9.55;4.85;;;26.80;43.80;;;;;;7369583;19;20018;-84
2023/06/13 08:16:36;;;;;;;6.85;3.72;;;26.90;43.80;;;;;;7367046;19;20021;-82
2023/06/13 08:19:04;;;;;;;7.63;4.03;;;26.90;43.50;;;;;;7368134;19;20025;-82
2023/06/13 08:21:31;;;;;;;8.90;7.38;;;26.70;44.00;;;;;;7369099;19;20025;-81
2023/06/13 08:23:59;;;;;;;14.25;12.68;;;27.30;44.50;;;;;;7368450;19;20038;-83
2023/06/13 08:26:27;;;;;;;8.32;3.72;;;27.20;44.20;;;;;;7366905;19;20022;-82
2023/06/13 08:28:53;;;;;;;8.27;6.13;;;27.60;43.60;;;;;;7366612;19;20081;-82
2023/06/13 08:31:23;;;;;;;7.07;3.67;;;27.80;42.90;;;;;;7370693;19;20022;-82
2023/06/13 08:33:51;;;;;;;5.78;3.70;;;27.70;42.30;;;;;;7368368;19;20098;-82
2023/06/13 08:36:17;;;;;;;10.77;9.60;;;27.40;42.30;;;;;;7366261;19;20018;-81
2023/06/13 08:38:44;;;;;;;5.57;4.38;;;27.70;42.30;;;;;;7369077;19;20040;-83
2023/06/13 08:41:11;;;;;;;10.77;7.72;;;27.40;42.40;;;;;;7368811;19;20022;-84
2023/06/13 08:43:41;;;;;;;10.32;7.00;;;27.80;42.20;;;;;;7369768;19;20018;-84
2023/06/13 08:46:07;;;;;;;8.57;6.88;;;27.90;42.30;;;;;;7369777;19;20037;-84
2023/06/13 08:48:35;;;;;;;13.73;10.60;;;28.00;42.00;;;;;;7366534;19;20018;-84
2023/06/13 08:51:03;;;;;;;7.95;6.35;;;28.30;41.80;;;;;;7365607;19;20510;-84
2023/06/13 08:53:32;;;;;;;7.88;4.25;;;28.20;40.80;;;;;;7373134;19;20144;-84
2023/06/13 08:56:04;;;;;;;11.27;9.10;;;28.60;40.10;;;;;;7369093;19;20482;-85
2023/06/13 08:58:38;;;;;;;8.88;6.28;;;28.30;40.30;;;;;;7370247;19;20045;-83
2023/06/13 09:01:06;;;;;;;10.48;8.43;;;28.50;39.30;;;;;;7368244;19;20487;-82
2023/06/13 09:03:33;;;;;;;4.60;3.15;;;28.70;38.70;;;;;;7373432;19;20025;-81
2023/06/13 09:06:01;;;;;;;5.60;3.95;;;28.50;38.40;;;;;;7369926;19;20019;-82
2023/06/13 09:08:28;;;;;;;95.60;87.38;;;28.70;38.30;;;;;;7370267;19;20101;-83
2023/06/13 09:10:56;;;;;;;18.92;16.92;;;28.80;38.50;;;;;;7369245;19;20389;-88
2023/06/13 09:13:24;;;;;;;49.75;45.38;;;29.00;38.50;;;;;;7369325;19;20018;-86
2023/06/13 09:15:51;;;;;;;19.90;16.63;;;29.00;37.10;;;;;;7368843;19;20070;-84
2023/06/13 09:18:19;;;;;;;10.82;6.45;;;29.10;36.80;;;;;;7370893;19;20105;-84
2023/06/13 09:20:48;;;;;;;13.73;12.30;;;29.30;36.10;;;;;;7370344;19;20025;-84
2023/06/13 09:23:18;;;;;;;9.38;3.92;;;29.20;36.10;;;;;;7373101;19;20023;-85
2023/06/13 09:25:48;;;;;;;7.55;6.60;;;29.30;35.00;;;;;;7370720;19;20018;-86
2023/06/13 09:28:31;;;;;;;;;;;29.30;35.50;;;;;;7369405;19;20014;-85
2023/06/13 09:30:57;;;;;;;9.73;4.72;;;29.40;36.20;;;;;;7371214;19;20346;-87
2023/06/13 09:33:24;;;;;;;4.55;3.83;;;29.40;35.90;;;;;;7370564;19;20018;-81
2023/06/13 09:35:52;;;;;;;7.20;3.70;;;29.60;35.70;;;;;;7368641;19;20146;-86
2023/06/13 09:38:23;;;;;;;15.10;11.13;;;29.80;35.40;;;;;;7376247;19;20025;-87
2023/06/13 09:40:54;;;;;;;11.25;5.65;;;30.10;35.60;;;;;;7380861;19;20018;-88
2023/06/13 09:43:24;;;;;;;12.15;8.98;;;30.30;35.40;;;;;;7383468;19;20025;-86
2023/06/13 09:45:54;;;;;;;14.25;12.90;;;30.50;35.50;;;;;;7377153;19;20018;-88
2023/06/13 09:48:21;;;;;;;8.63;7.03;;;30.80;34.80;;;;;;7376949;19;20888;-85
2023/06/13 09:50:50;;;;;;;11.70;6.80;;;30.90;34.70;;;;;;7377816;19;20086;-85
2023/06/13 09:53:17;;;;;;;5.97;4.03;;;30.30;34.60;;;;;;7377378;19;20034;-84
2023/06/13 09:55:44;;;;;;;5.63;4.93;;;30.60;34.70;;;;;;7380067;19;20025;-85
2023/06/13 09:58:11;;;;;;;5.93;5.28;;;30.80;34.40;;;;;;7377530;19;20022;-86
2023/06/13 10:00:37;;;;;;;5.53;4.22;;;30.70;34.70;;;;;;7378440;19;20478;-85
2023/06/13 10:03:03;;;;;;;5.10;3.63;;;30.80;34.70;;;;;;7378811;19;20082;-85
2023/06/13 10:05:30;;;;;;;7.18;5.53;;;30.60;33.50;;;;;;7381825;19;20033;-85
2023/06/13 10:07:57;;;;;;;8.90;6.03;;;30.70;34.70;;;;;;7380966;19;20022;-85
2023/06/13 10:10:23;;;;;;;6.93;5.32;;;30.90;35.10;;;;;;7378513;19;20379;-84
2023/06/13 10:12:58;;;;;;;5.65;3.08;;;31.10;34.30;;;;;;7383455;19;20019;-86
2023/06/13 10:15:39;;;;;;;5.50;4.32;;;30.80;33.40;;;;;;7381397;19;20014;-87
2023/06/13 10:18:12;;;;;;;5.88;3.13;;;30.90;33.00;;;;;;7377390;19;20040;-85
2023/06/13 10:20:39;;;;;;;6.07;3.85;;;30.90;33.00;;;;;;7381115;19;20018;-87
2023/06/13 10:23:13;;;;;;;6.85;3.15;;;30.70;33.30;;;;;;7380278;19;20018;-85
2023/06/13 10:25:42;;;;;;;57.45;52.55;;;31.20;33.10;;;;;;7380509;19;20082;-86
2023/06/13 10:28:24;;;;;;;8.07;6.88;;;31.40;33.40;;;;;;7376862;19;20016;-86
2023/06/13 10:30:57;;;;;;;19.38;17.45;;;31.50;32.10;;;;;;7381164;19;20026;-87
2023/06/13 10:33:35;;;;;;;14.65;13.15;;;31.40;32.30;;;;;;7377647;19;20109;-87
2023/06/13 10:36:07;;;;;;;11.98;9.38;;;30.90;32.70;;;;;;7379300;19;20018;-86
2023/06/13 10:38:54;;;;;;;6.63;5.40;;;31.30;33.90;;;;;;7378892;19;20090;-86
2023/06/13 10:41:33;;;;;;;11.85;10.15;;;31.70;33.50;;;;;;7384766;19;20010;-87
2023/06/13 10:44:14;;;;;;;8.70;6.78;;;31.80;32.80;;;;;;7379650;19;20014;-87
2023/06/13 10:46:41;;;;;;;14.57;13.13;;;31.70;32.70;;;;;;7379080;19;20498;-86
2023/06/13 10:49:15;;;;;;;7.85;4.75;;;31.70;32.90;;;;;;7375771;19;20774;-87
2023/06/13 10:51:46;;;;;;;6.55;4.82;;;32.00;33.20;;;;;;7382359;19;20137;-86
2023/06/13 10:54:14;;;;;;;6.65;3.70;;;31.70;32.80;;;;;;7375379;19;20023;-86
2023/06/13 10:56:43;;;;;;;5.82;3.22;;;31.20;31.80;;;;;;7378054;19;20258;-86
2023/06/13 10:59:17;;;;;;;6.22;3.90;;;31.70;32.50;;;;;;7378193;19;20108;-85
2023/06/13 11:01:44;;;;;;;8.15;4.30;;;31.80;32.30;;;;;;7384446;19;20023;-85
2023/06/13 11:04:14;;;;;;;9.50;7.07;;;32.10;32.70;;;;;;7381661;19;20055;-86
2023/06/13 11:06:45;;;;;;;7.18;4.35;;;31.90;32.70;;;;;;7392356;19;20333;-86
2023/06/13 11:09:23;;;;;;;4.10;3.60;;;31.90;32.60;;;;;;7377601;19;20039;-86
2023/06/13 11:11:51;;;;;;;5.93;3.50;;;32.20;32.20;;;;;;7383684;19;20022;-86
2023/06/13 11:14:26;;;;;;;5.95;3.22;;;32.30;32.40;;;;;;7380749;19;21290;-86
2023/06/13 11:16:53;;;;;;;5.28;3.70;;;32.50;31.80;;;;;;7380446;19;20047;-84
2023/06/13 11:19:22;;;;;;;5.68;3.67;;;32.50;31.70;;;;;;7391090;19;20339;-86
2023/06/13 11:22:10;;;;;;;5.82;3.42;;;32.80;31.40;;;;;;7380483;19;20011;-86
2023/06/13 11:24:37;;;;;;;6.43;3.75;;;32.60;30.90;;;;;;7379939;19;20010;-85
2023/06/13 11:27:04;;;;;;;6.45;3.85;;;32.50;31.80;;;;;;7373908;19;20019;-85
2023/06/13 11:29:32;;;;;;;6.25;4.15;;;32.20;31.50;;;;;;7373889;19;20019;-85
2023/06/13 11:32:04;;;;;;;6.40;3.53;;;32.10;30.00;;;;;;7378488;19;20017;-86
2023/06/13 11:34:42;;;;;;;6.40;4.00;;;31.90;31.30;;;;;;7383022;19;20022;-87
2023/06/13 11:37:30;;;;;;;5.20;3.58;;;32.30;31.10;;;;;;7379921;19;20030;-85
2023/06/13 11:39:57;;;;;;;5.97;3.67;;;32.20;31.00;;;;;;7377064;19;20019;-85
2023/06/13 11:42:24;;;;;;;5.55;3.80;;;31.90;31.60;;;;;;7373734;19;20027;-85
2023/06/13 11:44:52;;;;;;;5.50;3.45;;;32.10;30.80;;;;;;7379820;19;20033;-84
2023/06/13 11:47:19;;;;;;;7.47;3.75;;;32.50;31.30;;;;;;7380064;19;20020;-86
2023/06/13 11:49:57;;;;;;;5.32;3.63;;;32.60;31.70;;;;;;7379611;19;20010;-85
2023/06/13 11:52:24;;;;;;;4.10;3.20;;;32.40;30.80;;;;;;7381168;19;20508;-86
2023/06/13 11:54:54;;;;;;;71.63;65.70;;;32.70;31.30;;;;;;7376127;19;20023;-85
2023/06/13 11:57:23;;;;;;;18.67;14.75;;;33.10;31.90;;;;;;7380088;19;20107;-82
2023/06/13 11:59:59;;;;;;;27.23;24.73;;;33.10;31.80;;;;;;7372001;19;20123;-89
2023/06/13 12:02:27;;;;;;;13.95;12.60;;;33.30;31.80;;;;;;7378571;19;20014;-85
2023/06/13 12:04:53;;;;;;;6.63;5.25;;;33.10;31.10;;;;;;7371791;19;20031;-88
2023/06/13 12:07:22;;;;;;;30.90;28.02;;;32.90;29.70;;;;;;7377854;19;20074;-83
2023/06/13 12:09:51;;;;;;;10.88;5.30;;;32.80;31.00;;;;;;7374280;19;20481;-86
2023/06/13 12:12:18;;;;;;;8.68;7.80;;;32.80;31.10;;;;;;7377803;19;20007;-86
2023/06/13 12:14:53;;;;;;;11.38;7.65;;;33.30;31.90;;;;;;7378521;19;20118;-86
2023/06/13 12:17:21;;;;;;;22.23;20.13;;;33.50;30.30;;;;;;7377830;19;20336;-87
2023/06/13 12:19:48;;;;;;;13.50;12.00;;;33.40;31.20;;;;;;7379662;19;20011;-85
2023/06/13 12:22:15;;;;;;;9.30;7.57;;;32.80;30.70;;;;;;7372501;19;20038;-87
2023/06/13 12:24:42;;;;;;;15.73;12.98;;;33.30;30.90;;;;;;7374526;19;20018;-87
2023/06/13 12:27:11;;;;;;;16.40;14.20;;;33.60;31.10;;;;;;7370362;19;20011;-87
2023/06/13 12:29:41;;;;;;;16.40;12.90;;;33.40;31.00;;;;;;7372047;19;20034;-85
2023/06/13 12:32:13;;;;;;;8.52;6.32;;;33.50;30.90;;;;;;7375717;19;20097;-87
2023/06/13 12:34:41;;;;;;;10.25;7.80;;;33.60;30.00;;;;;;7378093;19;20483;-87
2023/06/13 12:37:11;;;;;;;10.80;8.02;;;33.60;30.50;;;;;;7363563;19;20044;-85
2023/06/13 12:39:58;;;;;;;;;;;33.40;30.90;;;;;;7368334;19;20211;-86
2023/06/13 12:42:25;;;;;;;6.75;4.38;;;33.10;30.20;;;;;;7368911;19;20451;-87
2023/06/13 12:44:51;;;;;;;13.00;10.60;;;33.10;30.40;;;;;;7367575;19;20015;-86
2023/06/13 12:47:23;;;;;;;30.60;27.63;;;32.90;30.40;;;;;;7363752;19;20010;-85
2023/06/13 12:49:49;;;;;;;5.68;3.88;;;32.70;31.20;;;;;;7362317;19;20022;-85
2023/06/13 12:52:16;;;;;;;7.50;4.68;;;32.60;31.80;;;;;;7368076;19;20026;-86
2023/06/13 12:54:43;;;;;;;7.25;5.18;;;32.70;31.40;;;;;;7369308;19;20074;-84
2023/06/13 12:57:12;;;;;;;8.38;7.15;;;32.30;31.10;;;;;;7368152;19;20031;-86
2023/06/13 12:59:42;;;;;;;6.47;5.25;;;32.60;31.70;;;;;;7369479;19;20014;-85